sensor_id;sensor_type;location;lat;lon;timestamp;P1;durP1;ratioP1;P2;durP2;ratioP2
8626;SDS011;4351;51.422;6.794;2023-03-04T00:01:19;14.07;;;3.87;;
8626;SDS011;4351;51.422;6.794;2023-03-04T00:03:46;14.40;;;4.13;;
8626;SDS011;4351;51.422;6.794;2023-03-04T00:06:16;15.07;;;3.90;;
8626;SDS011;4351;51.422;6.794;2023-03-04T00:08:44;17.30;;;4.10;;
8626;SDS011;4351;51.422;6.794;2023-03-04T00:11:11;13.63;;;3.53;;
8626;SDS011;4351;51.422;6.794;2023-03-04T00:13:39;14.77;;;3.63;;
8626;SDS011;4351;51.422;6.794;2023-03-04T00:16:07;14.13;;;3.80;;
8626;SDS011;4351;51.422;6.794;2023-03-04T00:18:35;14.17;;;3.97;;
8626;SDS011;4351;51.422;6.794;2023-03-04T00:21:03;14.03;;;3.90;;
8626;SDS011;4351;51.422;6.794;2023-03-04T00:23:33;15.17;;;4.07;;
8626;SDS011;4351;51.422;6.794;2023-03-04T00:26:00;16.30;;;4.20;;
8626;SDS011;4351;51.422;6.794;2023-03-04T00:28:28;9.77;;;3.40;;
8626;SDS011;4351;51.422;6.794;2023-03-04T00:30:56;14.93;;;4.47;;
8626;SDS011;4351;51.422;6.794;2023-03-04T00:33:24;11.30;;;4.67;;
8626;SDS011;4351;51.422;6.794;2023-03-04T00:35:52;15.07;;;4.50;;
8626;SDS011;4351;51.422;6.794;2023-03-04T00:38:19;15.93;;;4.37;;
8626;SDS011;4351;51.422;6.794;2023-03-04T00:40:49;14.43;;;4.70;;
8626;SDS011;4351;51.422;6.794;2023-03-04T00:43:17;15.00;;;4.43;;
8626;SDS011;4351;51.422;6.794;2023-03-04T00:45:45;13.13;;;4.20;;
8626;SDS011;4351;51.422;6.794;2023-03-04T00:48:13;15.30;;;4.07;;
8626;SDS011;4351;51.422;6.794;2023-03-04T00:50:42;13.90;;;3.80;;
8626;SDS011;4351;51.422;6.794;2023-03-04T00:53:10;16.00;;;3.73;;
8626;SDS011;4351;51.422;6.794;2023-03-04T00:55:38;14.17;;;4.00;;
8626;SDS011;4351;51.422;6.794;2023-03-04T00:58:07;13.80;;;3.40;;
8626;SDS011;4351;51.422;6.794;2023-03-04T01:00:35;14.23;;;3.50;;
8626;SDS011;4351;51.422;6.794;2023-03-04T01:03:03;13.93;;;3.93;;
8626;SDS011;4351;51.422;6.794;2023-03-04T01:05:31;19.00;;;3.30;;
8626;SDS011;4351;51.422;6.794;2023-03-04T01:08:01;12.77;;;3.40;;
8626;SDS011;4351;51.422;6.794;2023-03-04T01:10:29;13.50;;;3.73;;
8626;SDS011;4351;51.422;6.794;2023-03-04T01:12:57;15.97;;;4.20;;
8626;SDS011;4351;51.422;6.794;2023-03-04T01:15:26;14.10;;;4.30;;
8626;SDS011;4351;51.422;6.794;2023-03-04T01:17:55;13.63;;;4.50;;
8626;SDS011;4351;51.422;6.794;2023-03-04T01:20:23;14.33;;;4.47;;
8626;SDS011;4351;51.422;6.794;2023-03-04T01:22:51;15.83;;;3.80;;
8626;SDS011;4351;51.422;6.794;2023-03-04T01:25:19;16.57;;;4.43;;
8626;SDS011;4351;51.422;6.794;2023-03-04T01:27:47;15.57;;;4.20;;
8626;SDS011;4351;51.422;6.794;2023-03-04T01:30:18;17.93;;;4.13;;
8626;SDS011;4351;51.422;6.794;2023-03-04T01:32:47;14.13;;;3.87;;
8626;SDS011;4351;51.422;6.794;2023-03-04T01:35:15;13.13;;;3.70;;
8626;SDS011;4351;51.422;6.794;2023-03-04T01:37:43;12.13;;;3.30;;
8626;SDS011;4351;51.422;6.794;2023-03-04T01:40:11;16.30;;;4.27;;
8626;SDS011;4351;51.422;6.794;2023-03-04T01:42:40;15.33;;;3.50;;
8626;SDS011;4351;51.422;6.794;2023-03-04T01:45:10;20.50;;;3.80;;
8626;SDS011;4351;51.422;6.794;2023-03-04T01:47:40;17.13;;;3.33;;
8626;SDS011;4351;51.422;6.794;2023-03-04T01:50:18;15.17;;;3.27;;
8626;SDS011;4351;51.422;6.794;2023-03-04T01:52:50;11.03;;;3.37;;
8626;SDS011;4351;51.422;6.794;2023-03-04T01:55:19;11.40;;;3.17;;
8626;SDS011;4351;51.422;6.794;2023-03-04T01:57:49;15.20;;;3.43;;
8626;SDS011;4351;51.422;6.794;2023-03-04T02:00:20;18.10;;;3.50;;
8626;SDS011;4351;51.422;6.794;2023-03-04T02:02:54;17.80;;;3.30;;
8626;SDS011;4351;51.422;6.794;2023-03-04T02:05:27;15.70;;;3.33;;
8626;SDS011;4351;51.422;6.794;2023-03-04T02:07:56;12.63;;;3.80;;
8626;SDS011;4351;51.422;6.794;2023-03-04T02:10:27;13.70;;;3.60;;
8626;SDS011;4351;51.422;6.794;2023-03-04T02:12:54;14.80;;;3.20;;
8626;SDS011;4351;51.422;6.794;2023-03-04T02:15:23;11.10;;;3.33;;
8626;SDS011;4351;51.422;6.794;2023-03-04T02:17:51;21.23;;;4.03;;
8626;SDS011;4351;51.422;6.794;2023-03-04T02:20:22;12.87;;;4.00;;
8626;SDS011;4351;51.422;6.794;2023-03-04T02:23:03;16.30;;;3.10;;
8626;SDS011;4351;51.422;6.794;2023-03-04T02:25:37;15.43;;;3.40;;
8626;SDS011;4351;51.422;6.794;2023-03-04T02:28:11;15.07;;;3.20;;
8626;SDS011;4351;51.422;6.794;2023-03-04T02:30:39;17.27;;;3.47;;
8626;SDS011;4351;51.422;6.794;2023-03-04T02:33:09;15.23;;;3.10;;
8626;SDS011;4351;51.422;6.794;2023-03-04T02:35:42;17.50;;;3.80;;
8626;SDS011;4351;51.422;6.794;2023-03-04T02:38:10;16.23;;;3.67;;
8626;SDS011;4351;51.422;6.794;2023-03-04T02:40:39;20.47;;;4.07;;
8626;SDS011;4351;51.422;6.794;2023-03-04T02:43:11;14.93;;;3.60;;
8626;SDS011;4351;51.422;6.794;2023-03-04T02:45:41;10.40;;;3.27;;
8626;SDS011;4351;51.422;6.794;2023-03-04T02:48:10;16.27;;;3.57;;
8626;SDS011;4351;51.422;6.794;2023-03-04T02:50:40;17.33;;;3.47;;
8626;SDS011;4351;51.422;6.794;2023-03-04T02:53:12;19.03;;;3.40;;
8626;SDS011;4351;51.422;6.794;2023-03-04T02:55:40;15.93;;;3.40;;
8626;SDS011;4351;51.422;6.794;2023-03-04T02:58:12;12.83;;;3.13;;
8626;SDS011;4351;51.422;6.794;2023-03-04T03:00:40;20.80;;;3.47;;
8626;SDS011;4351;51.422;6.794;2023-03-04T03:03:09;14.43;;;3.27;;
8626;SDS011;4351;51.422;6.794;2023-03-04T03:05:37;12.60;;;3.33;;
8626;SDS011;4351;51.422;6.794;2023-03-04T03:08:06;12.03;;;2.87;;
8626;SDS011;4351;51.422;6.794;2023-03-04T03:10:34;15.73;;;3.13;;
8626;SDS011;4351;51.422;6.794;2023-03-04T03:13:05;16.13;;;3.40;;
8626;SDS011;4351;51.422;6.794;2023-03-04T03:15:34;14.50;;;3.23;;
8626;SDS011;4351;51.422;6.794;2023-03-04T03:18:08;16.80;;;4.07;;
8626;SDS011;4351;51.422;6.794;2023-03-04T03:20:36;10.53;;;2.73;;
8626;SDS011;4351;51.422;6.794;2023-03-04T03:23:04;11.47;;;3.23;;
8626;SDS011;4351;51.422;6.794;2023-03-04T03:25:32;22.17;;;3.10;;
8626;SDS011;4351;51.422;6.794;2023-03-04T03:28:00;18.90;;;3.00;;
8626;SDS011;4351;51.422;6.794;2023-03-04T03:30:27;16.57;;;3.20;;
8626;SDS011;4351;51.422;6.794;2023-03-04T03:32:57;13.60;;;2.97;;
8626;SDS011;4351;51.422;6.794;2023-03-04T03:35:25;13.20;;;2.93;;
8626;SDS011;4351;51.422;6.794;2023-03-04T03:37:53;13.13;;;2.90;;
8626;SDS011;4351;51.422;6.794;2023-03-04T03:40:21;18.40;;;3.20;;
8626;SDS011;4351;51.422;6.794;2023-03-04T03:42:49;11.50;;;2.80;;
8626;SDS011;4351;51.422;6.794;2023-03-04T03:45:17;12.17;;;2.27;;
8626;SDS011;4351;51.422;6.794;2023-03-04T03:47:45;14.53;;;2.57;;
8626;SDS011;4351;51.422;6.794;2023-03-04T03:50:14;11.00;;;2.70;;
8626;SDS011;4351;51.422;6.794;2023-03-04T03:52:42;11.80;;;3.17;;
8626;SDS011;4351;51.422;6.794;2023-03-04T03:55:10;15.67;;;2.77;;
8626;SDS011;4351;51.422;6.794;2023-03-04T03:57:39;17.90;;;2.90;;
8626;SDS011;4351;51.422;6.794;2023-03-04T04:00:08;12.30;;;2.57;;
8626;SDS011;4351;51.422;6.794;2023-03-04T04:02:40;12.03;;;2.47;;
8626;SDS011;4351;51.422;6.794;2023-03-04T04:05:08;10.93;;;2.97;;
8626;SDS011;4351;51.422;6.794;2023-03-04T04:07:38;12.30;;;2.70;;
8626;SDS011;4351;51.422;6.794;2023-03-04T04:10:07;12.87;;;2.40;;
8626;SDS011;4351;51.422;6.794;2023-03-04T04:12:37;12.40;;;2.57;;
8626;SDS011;4351;51.422;6.794;2023-03-04T04:15:05;11.03;;;2.70;;
8626;SDS011;4351;51.422;6.794;2023-03-04T04:17:34;14.67;;;3.13;;
8626;SDS011;4351;51.422;6.794;2023-03-04T04:20:02;12.47;;;2.60;;
8626;SDS011;4351;51.422;6.794;2023-03-04T04:22:31;9.93;;;2.40;;
8626;SDS011;4351;51.422;6.794;2023-03-04T04:25:00;6.13;;;2.50;;
8626;SDS011;4351;51.422;6.794;2023-03-04T04:27:28;13.83;;;2.53;;
8626;SDS011;4351;51.422;6.794;2023-03-04T04:29:56;10.83;;;2.97;;
8626;SDS011;4351;51.422;6.794;2023-03-04T04:32:24;10.37;;;2.10;;
8626;SDS011;4351;51.422;6.794;2023-03-04T04:34:52;10.93;;;2.70;;
8626;SDS011;4351;51.422;6.794;2023-03-04T04:37:20;8.93;;;2.40;;
8626;SDS011;4351;51.422;6.794;2023-03-04T04:39:48;6.57;;;2.10;;
8626;SDS011;4351;51.422;6.794;2023-03-04T04:42:18;7.97;;;2.17;;
8626;SDS011;4351;51.422;6.794;2023-03-04T04:44:46;11.13;;;2.50;;
8626;SDS011;4351;51.422;6.794;2023-03-04T04:47:14;14.23;;;2.67;;
8626;SDS011;4351;51.422;6.794;2023-03-04T04:49:42;10.33;;;2.50;;
8626;SDS011;4351;51.422;6.794;2023-03-04T04:52:10;12.33;;;3.23;;
8626;SDS011;4351;51.422;6.794;2023-03-04T04:54:38;12.20;;;2.70;;
8626;SDS011;4351;51.422;6.794;2023-03-04T04:57:06;12.97;;;2.77;;
8626;SDS011;4351;51.422;6.794;2023-03-04T04:59:35;11.40;;;2.47;;
8626;SDS011;4351;51.422;6.794;2023-03-04T05:02:03;10.30;;;2.43;;
8626;SDS011;4351;51.422;6.794;2023-03-04T05:04:31;8.80;;;2.60;;
8626;SDS011;4351;51.422;6.794;2023-03-04T05:06:59;10.67;;;3.00;;
8626;SDS011;4351;51.422;6.794;2023-03-04T05:09:27;9.17;;;2.37;;
8626;SDS011;4351;51.422;6.794;2023-03-04T05:11:55;11.00;;;2.20;;
8626;SDS011;4351;51.422;6.794;2023-03-04T05:14:23;11.33;;;3.17;;
8626;SDS011;4351;51.422;6.794;2023-03-04T05:16:52;11.37;;;3.10;;
8626;SDS011;4351;51.422;6.794;2023-03-04T05:19:20;10.03;;;2.87;;
8626;SDS011;4351;51.422;6.794;2023-03-04T05:21:48;6.90;;;2.20;;
8626;SDS011;4351;51.422;6.794;2023-03-04T05:24:16;12.00;;;2.40;;
8626;SDS011;4351;51.422;6.794;2023-03-04T05:26:44;10.93;;;2.50;;
8626;SDS011;4351;51.422;6.794;2023-03-04T05:29:12;10.40;;;2.47;;
8626;SDS011;4351;51.422;6.794;2023-03-04T05:31:40;12.23;;;2.40;;
8626;SDS011;4351;51.422;6.794;2023-03-04T05:34:09;11.83;;;2.57;;
8626;SDS011;4351;51.422;6.794;2023-03-04T05:36:37;6.43;;;2.03;;
8626;SDS011;4351;51.422;6.794;2023-03-04T05:39:05;9.63;;;2.60;;
8626;SDS011;4351;51.422;6.794;2023-03-04T05:41:33;8.43;;;2.20;;
8626;SDS011;4351;51.422;6.794;2023-03-04T05:44:00;12.50;;;2.40;;
8626;SDS011;4351;51.422;6.794;2023-03-04T05:46:28;10.07;;;2.70;;
8626;SDS011;4351;51.422;6.794;2023-03-04T05:48:59;10.47;;;2.50;;
8626;SDS011;4351;51.422;6.794;2023-03-04T05:51:28;14.67;;;4.00;;
8626;SDS011;4351;51.422;6.794;2023-03-04T05:53:56;12.40;;;3.27;;
8626;SDS011;4351;51.422;6.794;2023-03-04T05:56:24;10.40;;;2.83;;
8626;SDS011;4351;51.422;6.794;2023-03-04T05:58:52;18.03;;;3.27;;
8626;SDS011;4351;51.422;6.794;2023-03-04T06:01:23;12.47;;;3.00;;
8626;SDS011;4351;51.422;6.794;2023-03-04T06:03:51;13.07;;;2.87;;
8626;SDS011;4351;51.422;6.794;2023-03-04T06:06:19;10.80;;;2.50;;
8626;SDS011;4351;51.422;6.794;2023-03-04T06:08:48;10.13;;;3.20;;
8626;SDS011;4351;51.422;6.794;2023-03-04T06:11:16;9.00;;;2.80;;
8626;SDS011;4351;51.422;6.794;2023-03-04T06:13:44;13.00;;;2.87;;
8626;SDS011;4351;51.422;6.794;2023-03-04T06:16:12;8.40;;;2.70;;
8626;SDS011;4351;51.422;6.794;2023-03-04T06:18:40;12.07;;;3.10;;
8626;SDS011;4351;51.422;6.794;2023-03-04T06:21:08;17.90;;;3.23;;
8626;SDS011;4351;51.422;6.794;2023-03-04T06:23:36;12.17;;;3.07;;
8626;SDS011;4351;51.422;6.794;2023-03-04T06:26:05;13.57;;;2.50;;
8626;SDS011;4351;51.422;6.794;2023-03-04T06:28:35;11.43;;;3.13;;
8626;SDS011;4351;51.422;6.794;2023-03-04T06:31:03;9.17;;;2.63;;
8626;SDS011;4351;51.422;6.794;2023-03-04T06:33:32;12.40;;;3.13;;
8626;SDS011;4351;51.422;6.794;2023-03-04T06:36:00;8.37;;;2.23;;
8626;SDS011;4351;51.422;6.794;2023-03-04T06:38:28;7.40;;;1.83;;
8626;SDS011;4351;51.422;6.794;2023-03-04T06:40:56;7.43;;;2.17;;
8626;SDS011;4351;51.422;6.794;2023-03-04T06:43:25;11.27;;;2.47;;
8626;SDS011;4351;51.422;6.794;2023-03-04T06:45:53;8.93;;;2.67;;
8626;SDS011;4351;51.422;6.794;2023-03-04T06:48:21;13.60;;;3.10;;
8626;SDS011;4351;51.422;6.794;2023-03-04T06:50:49;11.70;;;3.30;;
8626;SDS011;4351;51.422;6.794;2023-03-04T06:53:16;10.93;;;3.00;;
8626;SDS011;4351;51.422;6.794;2023-03-04T06:55:45;7.70;;;2.77;;
8626;SDS011;4351;51.422;6.794;2023-03-04T06:58:13;14.10;;;2.97;;
8626;SDS011;4351;51.422;6.794;2023-03-04T07:00:44;8.80;;;3.20;;
8626;SDS011;4351;51.422;6.794;2023-03-04T07:03:12;13.90;;;3.40;;
8626;SDS011;4351;51.422;6.794;2023-03-04T07:05:41;9.43;;;2.83;;
8626;SDS011;4351;51.422;6.794;2023-03-04T07:08:09;11.20;;;2.20;;
8626;SDS011;4351;51.422;6.794;2023-03-04T07:10:38;15.07;;;2.60;;
8626;SDS011;4351;51.422;6.794;2023-03-04T07:13:06;7.70;;;2.03;;
8626;SDS011;4351;51.422;6.794;2023-03-04T07:15:34;11.50;;;2.80;;
8626;SDS011;4351;51.422;6.794;2023-03-04T07:18:04;13.23;;;3.23;;
8626;SDS011;4351;51.422;6.794;2023-03-04T07:20:31;12.70;;;3.37;;
8626;SDS011;4351;51.422;6.794;2023-03-04T07:22:59;14.10;;;4.10;;
8626;SDS011;4351;51.422;6.794;2023-03-04T07:25:27;15.20;;;3.93;;
8626;SDS011;4351;51.422;6.794;2023-03-04T07:27:55;12.30;;;3.53;;
8626;SDS011;4351;51.422;6.794;2023-03-04T07:30:23;10.03;;;3.77;;
8626;SDS011;4351;51.422;6.794;2023-03-04T07:32:51;11.03;;;3.00;;
8626;SDS011;4351;51.422;6.794;2023-03-04T07:35:21;11.43;;;3.47;;
8626;SDS011;4351;51.422;6.794;2023-03-04T07:37:49;15.57;;;4.30;;
8626;SDS011;4351;51.422;6.794;2023-03-04T07:40:17;9.77;;;3.30;;
8626;SDS011;4351;51.422;6.794;2023-03-04T07:42:48;9.50;;;3.70;;
8626;SDS011;4351;51.422;6.794;2023-03-04T07:45:16;12.00;;;3.83;;
8626;SDS011;4351;51.422;6.794;2023-03-04T07:47:44;14.13;;;3.73;;
8626;SDS011;4351;51.422;6.794;2023-03-04T07:50:12;15.97;;;3.50;;
8626;SDS011;4351;51.422;6.794;2023-03-04T07:52:45;12.60;;;3.33;;
8626;SDS011;4351;51.422;6.794;2023-03-04T07:55:16;15.57;;;3.20;;
8626;SDS011;4351;51.422;6.794;2023-03-04T07:57:45;14.07;;;2.90;;
8626;SDS011;4351;51.422;6.794;2023-03-04T08:00:15;9.37;;;2.50;;
8626;SDS011;4351;51.422;6.794;2023-03-04T08:02:43;8.93;;;2.30;;
8626;SDS011;4351;51.422;6.794;2023-03-04T08:05:11;15.37;;;2.50;;
8626;SDS011;4351;51.422;6.794;2023-03-04T08:07:39;14.83;;;2.80;;
8626;SDS011;4351;51.422;6.794;2023-03-04T08:10:10;11.83;;;2.70;;
8626;SDS011;4351;51.422;6.794;2023-03-04T08:12:38;12.67;;;3.07;;
8626;SDS011;4351;51.422;6.794;2023-03-04T08:15:06;12.60;;;2.50;;
8626;SDS011;4351;51.422;6.794;2023-03-04T08:17:35;10.93;;;2.50;;
8626;SDS011;4351;51.422;6.794;2023-03-04T08:20:03;11.33;;;2.70;;
8626;SDS011;4351;51.422;6.794;2023-03-04T08:22:32;11.03;;;3.17;;
8626;SDS011;4351;51.422;6.794;2023-03-04T08:25:00;14.77;;;3.60;;
8626;SDS011;4351;51.422;6.794;2023-03-04T08:27:29;11.77;;;3.40;;
8626;SDS011;4351;51.422;6.794;2023-03-04T08:29:57;14.90;;;3.80;;
8626;SDS011;4351;51.422;6.794;2023-03-04T08:32:25;13.83;;;3.23;;
8626;SDS011;4351;51.422;6.794;2023-03-04T08:34:53;16.13;;;3.73;;
8626;SDS011;4351;51.422;6.794;2023-03-04T08:37:22;16.13;;;2.70;;
8626;SDS011;4351;51.422;6.794;2023-03-04T08:39:50;8.90;;;2.40;;
8626;SDS011;4351;51.422;6.794;2023-03-04T08:42:18;7.73;;;2.47;;
8626;SDS011;4351;51.422;6.794;2023-03-04T08:44:47;8.77;;;2.10;;
8626;SDS011;4351;51.422;6.794;2023-03-04T08:47:15;8.07;;;2.17;;
8626;SDS011;4351;51.422;6.794;2023-03-04T08:49:43;11.40;;;2.23;;
8626;SDS011;4351;51.422;6.794;2023-03-04T08:52:11;10.10;;;2.40;;
8626;SDS011;4351;51.422;6.794;2023-03-04T08:54:39;9.30;;;2.83;;
8626;SDS011;4351;51.422;6.794;2023-03-04T08:57:07;7.57;;;2.60;;
8626;SDS011;4351;51.422;6.794;2023-03-04T08:59:35;10.17;;;2.63;;
8626;SDS011;4351;51.422;6.794;2023-03-04T09:02:05;9.23;;;2.60;;
8626;SDS011;4351;51.422;6.794;2023-03-04T09:04:33;9.47;;;2.43;;
8626;SDS011;4351;51.422;6.794;2023-03-04T09:07:02;10.60;;;2.80;;
8626;SDS011;4351;51.422;6.794;2023-03-04T09:09:30;10.80;;;2.57;;
8626;SDS011;4351;51.422;6.794;2023-03-04T09:11:58;7.43;;;2.40;;
8626;SDS011;4351;51.422;6.794;2023-03-04T09:14:26;8.70;;;2.50;;
8626;SDS011;4351;51.422;6.794;2023-03-04T09:16:54;7.30;;;2.40;;
8626;SDS011;4351;51.422;6.794;2023-03-04T09:19:23;8.87;;;2.20;;
8626;SDS011;4351;51.422;6.794;2023-03-04T09:21:53;9.93;;;2.43;;
8626;SDS011;4351;51.422;6.794;2023-03-04T09:24:21;9.37;;;2.00;;
8626;SDS011;4351;51.422;6.794;2023-03-04T09:26:49;8.63;;;2.47;;
8626;SDS011;4351;51.422;6.794;2023-03-04T09:29:18;10.03;;;2.37;;
8626;SDS011;4351;51.422;6.794;2023-03-04T09:31:46;7.60;;;1.90;;
8626;SDS011;4351;51.422;6.794;2023-03-04T09:34:14;10.53;;;2.17;;
8626;SDS011;4351;51.422;6.794;2023-03-04T09:36:43;7.00;;;2.13;;
8626;SDS011;4351;51.422;6.794;2023-03-04T09:39:11;5.57;;;2.33;;
8626;SDS011;4351;51.422;6.794;2023-03-04T09:41:40;8.27;;;2.30;;
8626;SDS011;4351;51.422;6.794;2023-03-04T09:44:14;6.50;;;2.53;;
8626;SDS011;4351;51.422;6.794;2023-03-04T09:46:49;8.50;;;2.97;;
8626;SDS011;4351;51.422;6.794;2023-03-04T09:49:19;8.63;;;2.60;;
8626;SDS011;4351;51.422;6.794;2023-03-04T09:51:55;8.60;;;2.30;;
8626;SDS011;4351;51.422;6.794;2023-03-04T09:54:34;6.50;;;2.00;;
8626;SDS011;4351;51.422;6.794;2023-03-04T09:57:17;7.20;;;1.90;;
8626;SDS011;4351;51.422;6.794;2023-03-04T09:59:51;4.90;;;2.03;;
8626;SDS011;4351;51.422;6.794;2023-03-04T10:02:39;5.90;;;1.90;;
8626;SDS011;4351;51.422;6.794;2023-03-04T10:05:13;5.27;;;1.83;;
8626;SDS011;4351;51.422;6.794;2023-03-04T10:07:47;8.00;;;2.07;;
8626;SDS011;4351;51.422;6.794;2023-03-04T10:10:21;8.27;;;2.40;;
8626;SDS011;4351;51.422;6.794;2023-03-04T10:12:53;8.80;;;2.30;;
8626;SDS011;4351;51.422;6.794;2023-03-04T10:15:26;4.30;;;2.00;;
8626;SDS011;4351;51.422;6.794;2023-03-04T10:18:01;7.63;;;2.20;;
8626;SDS011;4351;51.422;6.794;2023-03-04T10:20:43;7.80;;;1.83;;
8626;SDS011;4351;51.422;6.794;2023-03-04T10:23:20;5.93;;;2.00;;
8626;SDS011;4351;51.422;6.794;2023-03-04T10:25:51;9.40;;;3.67;;
8626;SDS011;4351;51.422;6.794;2023-03-04T10:28:20;9.20;;;3.47;;
8626;SDS011;4351;51.422;6.794;2023-03-04T10:30:55;4.73;;;1.90;;
8626;SDS011;4351;51.422;6.794;2023-03-04T10:33:28;3.43;;;1.63;;
8626;SDS011;4351;51.422;6.794;2023-03-04T10:35:59;5.47;;;1.40;;
8626;SDS011;4351;51.422;6.794;2023-03-04T10:38:31;4.53;;;1.73;;
8626;SDS011;4351;51.422;6.794;2023-03-04T10:41:04;4.20;;;1.47;;
8626;SDS011;4351;51.422;6.794;2023-03-04T10:43:39;3.93;;;1.37;;
8626;SDS011;4351;51.422;6.794;2023-03-04T10:46:09;3.57;;;1.40;;
8626;SDS011;4351;51.422;6.794;2023-03-04T10:48:39;3.30;;;1.30;;
8626;SDS011;4351;51.422;6.794;2023-03-04T10:51:10;7.77;;;2.17;;
8626;SDS011;4351;51.422;6.794;2023-03-04T10:53:41;6.67;;;1.70;;
8626;SDS011;4351;51.422;6.794;2023-03-04T10:56:29;6.83;;;1.87;;
8626;SDS011;4351;51.422;6.794;2023-03-04T11:02:12;4.33;;;1.30;;
8626;SDS011;4351;51.422;6.794;2023-03-04T11:04:47;5.80;;;1.60;;
8626;SDS011;4351;51.422;6.794;2023-03-04T11:07:19;6.73;;;1.87;;
8626;SDS011;4351;51.422;6.794;2023-03-04T11:09:50;4.80;;;1.80;;
8626;SDS011;4351;51.422;6.794;2023-03-04T11:12:20;7.53;;;1.87;;
8626;SDS011;4351;51.422;6.794;2023-03-04T11:15:01;5.43;;;1.73;;
8626;SDS011;4351;51.422;6.794;2023-03-04T11:17:38;4.73;;;1.60;;
8626;SDS011;4351;51.422;6.794;2023-03-04T11:20:12;6.40;;;1.83;;
8626;SDS011;4351;51.422;6.794;2023-03-04T11:22:45;3.63;;;1.53;;
8626;SDS011;4351;51.422;6.794;2023-03-04T11:25:19;4.23;;;1.60;;
8626;SDS011;4351;51.422;6.794;2023-03-04T11:27:53;2.40;;;1.67;;
8626;SDS011;4351;51.422;6.794;2023-03-04T11:30:35;8.53;;;3.30;;
8626;SDS011;4351;51.422;6.794;2023-03-04T11:33:14;7.27;;;2.00;;
8626;SDS011;4351;51.422;6.794;2023-03-04T11:35:53;4.63;;;1.47;;
8626;SDS011;4351;51.422;6.794;2023-03-04T11:38:27;3.73;;;1.37;;
8626;SDS011;4351;51.422;6.794;2023-03-04T11:41:00;3.13;;;1.50;;
8626;SDS011;4351;51.422;6.794;2023-03-04T11:43:33;4.37;;;1.77;;
8626;SDS011;4351;51.422;6.794;2023-03-04T11:49:17;3.73;;;1.60;;
8626;SDS011;4351;51.422;6.794;2023-03-04T11:52:17;6.80;;;2.10;;
8626;SDS011;4351;51.422;6.794;2023-03-04T11:55:01;7.03;;;1.80;;
8626;SDS011;4351;51.422;6.794;2023-03-04T11:57:42;4.37;;;1.53;;
8626;SDS011;4351;51.422;6.794;2023-03-04T12:00:26;3.17;;;1.83;;
8626;SDS011;4351;51.422;6.794;2023-03-04T12:03:10;6.10;;;1.63;;
8626;SDS011;4351;51.422;6.794;2023-03-04T12:05:57;3.03;;;1.70;;
8626;SDS011;4351;51.422;6.794;2023-03-04T12:08:42;4.60;;;1.30;;
8626;SDS011;4351;51.422;6.794;2023-03-04T12:11:22;3.67;;;1.13;;
8626;SDS011;4351;51.422;6.794;2023-03-04T12:14:08;4.67;;;1.63;;
8626;SDS011;4351;51.422;6.794;2023-03-04T12:23:06;6.80;;;1.70;;
8626;SDS011;4351;51.422;6.794;2023-03-04T12:25:47;6.13;;;1.73;;
8626;SDS011;4351;51.422;6.794;2023-03-04T12:28:30;4.67;;;1.63;;
8626;SDS011;4351;51.422;6.794;2023-03-04T12:31:14;4.93;;;1.83;;
8626;SDS011;4351;51.422;6.794;2023-03-04T12:34:01;4.50;;;1.70;;
8626;SDS011;4351;51.422;6.794;2023-03-04T12:36:41;6.73;;;1.83;;
8626;SDS011;4351;51.422;6.794;2023-03-04T12:39:21;3.63;;;1.50;;
8626;SDS011;4351;51.422;6.794;2023-03-04T12:41:58;5.13;;;1.50;;
8626;SDS011;4351;51.422;6.794;2023-03-04T12:44:35;4.47;;;1.60;;
8626;SDS011;4351;51.422;6.794;2023-03-04T12:47:18;2.50;;;1.50;;
8626;SDS011;4351;51.422;6.794;2023-03-04T12:49:59;5.07;;;1.60;;
8626;SDS011;4351;51.422;6.794;2023-03-04T12:52:48;2.67;;;1.70;;
8626;SDS011;4351;51.422;6.794;2023-03-04T12:55:29;6.07;;;1.80;;
8626;SDS011;4351;51.422;6.794;2023-03-04T12:58:03;4.27;;;1.90;;
8626;SDS011;4351;51.422;6.794;2023-03-04T13:00:36;4.60;;;1.70;;
8626;SDS011;4351;51.422;6.794;2023-03-04T13:03:16;3.53;;;1.60;;
8626;SDS011;4351;51.422;6.794;2023-03-04T13:05:54;5.87;;;2.13;;
8626;SDS011;4351;51.422;6.794;2023-03-04T13:08:35;5.03;;;2.00;;
8626;SDS011;4351;51.422;6.794;2023-03-04T13:11:37;4.43;;;2.50;;
8626;SDS011;4351;51.422;6.794;2023-03-04T13:14:26;3.33;;;1.93;;
8626;SDS011;4351;51.422;6.794;2023-03-04T13:16:59;4.17;;;1.90;;
8626;SDS011;4351;51.422;6.794;2023-03-04T13:19:43;5.43;;;1.90;;
8626;SDS011;4351;51.422;6.794;2023-03-04T13:22:27;5.07;;;2.07;;
8626;SDS011;4351;51.422;6.794;2023-03-04T13:24:56;3.97;;;2.40;;
8626;SDS011;4351;51.422;6.794;2023-03-04T13:27:44;4.00;;;1.90;;
8626;SDS011;4351;51.422;6.794;2023-03-04T13:36:26;4.30;;;2.20;;
8626;SDS011;4351;51.422;6.794;2023-03-04T13:39:29;4.30;;;2.07;;
8626;SDS011;4351;51.422;6.794;2023-03-04T13:41:58;5.20;;;1.90;;
8626;SDS011;4351;51.422;6.794;2023-03-04T13:56:27;3.70;;;2.00;;
8626;SDS011;4351;51.422;6.794;2023-03-04T14:01:55;5.67;;;2.40;;
8626;SDS011;4351;51.422;6.794;2023-03-04T14:04:26;4.53;;;2.50;;
8626;SDS011;4351;51.422;6.794;2023-03-04T14:06:57;4.43;;;2.13;;
8626;SDS011;4351;51.422;6.794;2023-03-04T14:09:28;5.40;;;2.20;;
8626;SDS011;4351;51.422;6.794;2023-03-04T14:12:00;3.50;;;2.20;;
8626;SDS011;4351;51.422;6.794;2023-03-04T14:14:32;4.40;;;2.10;;
8626;SDS011;4351;51.422;6.794;2023-03-04T14:17:14;2.80;;;1.70;;
8626;SDS011;4351;51.422;6.794;2023-03-04T14:19:46;4.87;;;2.53;;
8626;SDS011;4351;51.422;6.794;2023-03-04T14:22:20;3.70;;;2.00;;
8626;SDS011;4351;51.422;6.794;2023-03-04T14:24:55;3.33;;;1.67;;
8626;SDS011;4351;51.422;6.794;2023-03-04T14:27:26;3.53;;;1.70;;
8626;SDS011;4351;51.422;6.794;2023-03-04T14:29:56;2.97;;;1.67;;
8626;SDS011;4351;51.422;6.794;2023-03-04T14:32:25;2.90;;;1.70;;
8626;SDS011;4351;51.422;6.794;2023-03-04T14:34:57;3.83;;;1.70;;
8626;SDS011;4351;51.422;6.794;2023-03-04T14:37:30;5.67;;;1.50;;
8626;SDS011;4351;51.422;6.794;2023-03-04T14:40:05;5.33;;;2.13;;
8626;SDS011;4351;51.422;6.794;2023-03-04T14:42:38;3.33;;;1.70;;
8626;SDS011;4351;51.422;6.794;2023-03-04T14:45:13;4.90;;;2.40;;
8626;SDS011;4351;51.422;6.794;2023-03-04T14:47:44;7.47;;;2.50;;
8626;SDS011;4351;51.422;6.794;2023-03-04T14:50:14;5.10;;;2.10;;
8626;SDS011;4351;51.422;6.794;2023-03-04T14:52:45;3.63;;;2.20;;
8626;SDS011;4351;51.422;6.794;2023-03-04T14:55:18;4.17;;;2.23;;
8626;SDS011;4351;51.422;6.794;2023-03-04T14:57:50;5.80;;;2.50;;
8626;SDS011;4351;51.422;6.794;2023-03-04T15:00:26;4.03;;;1.90;;
8626;SDS011;4351;51.422;6.794;2023-03-04T15:02:56;6.97;;;2.40;;
8626;SDS011;4351;51.422;6.794;2023-03-04T15:05:27;6.67;;;2.70;;
8626;SDS011;4351;51.422;6.794;2023-03-04T15:07:57;7.80;;;4.00;;
8626;SDS011;4351;51.422;6.794;2023-03-04T15:10:27;11.57;;;5.63;;
8626;SDS011;4351;51.422;6.794;2023-03-04T15:12:59;10.10;;;5.03;;
8626;SDS011;4351;51.422;6.794;2023-03-04T15:15:31;18.23;;;7.10;;
8626;SDS011;4351;51.422;6.794;2023-03-04T15:18:16;21.23;;;8.83;;
8626;SDS011;4351;51.422;6.794;2023-03-04T15:20:52;14.80;;;8.10;;
8626;SDS011;4351;51.422;6.794;2023-03-04T15:23:21;12.40;;;4.07;;
8626;SDS011;4351;51.422;6.794;2023-03-04T15:25:50;10.87;;;3.17;;
8626;SDS011;4351;51.422;6.794;2023-03-04T15:28:21;8.80;;;2.87;;
8626;SDS011;4351;51.422;6.794;2023-03-04T15:30:50;7.77;;;2.60;;
8626;SDS011;4351;51.422;6.794;2023-03-04T15:33:18;8.10;;;2.27;;
8626;SDS011;4351;51.422;6.794;2023-03-04T15:35:48;11.27;;;3.00;;
8626;SDS011;4351;51.422;6.794;2023-03-04T15:38:19;9.20;;;3.63;;
8626;SDS011;4351;51.422;6.794;2023-03-04T15:40:47;14.37;;;3.93;;
8626;SDS011;4351;51.422;6.794;2023-03-04T15:43:21;11.10;;;3.83;;
8626;SDS011;4351;51.422;6.794;2023-03-04T15:45:50;13.57;;;4.33;;
8626;SDS011;4351;51.422;6.794;2023-03-04T15:48:19;16.33;;;3.73;;
8626;SDS011;4351;51.422;6.794;2023-03-04T15:50:48;13.17;;;3.87;;
8626;SDS011;4351;51.422;6.794;2023-03-04T15:53:21;16.33;;;4.27;;
8626;SDS011;4351;51.422;6.794;2023-03-04T15:55:55;12.80;;;4.17;;
8626;SDS011;4351;51.422;6.794;2023-03-04T15:58:24;14.30;;;3.93;;
8626;SDS011;4351;51.422;6.794;2023-03-04T16:00:53;10.23;;;3.53;;
8626;SDS011;4351;51.422;6.794;2023-03-04T16:03:21;17.83;;;3.10;;
8626;SDS011;4351;51.422;6.794;2023-03-04T16:05:50;13.53;;;3.10;;